»·PEaware :: N423AF PHHN-PHJR

N423AF :: PHHN-PHJR

FLIGHT INFORMATION

Flight Status: Arrived
Operator: Privately registered:
United States
More flights under this callsign
Pilot: Cooper L. (8467)
Aircraft: MOONEY M-20 201 202 205 220 ATS MSE
(M20P)
More flights by this aircraft type
Origin: PHHN Hana
United States
Destination: PHJR Kalaeloa (John Rodgers Field)
United States
More flights between these airports :: More routes between these airports
Route: OGG HNL
File this flight plan on PilotEdge
Remarks:
Altitude:
(Current/Filed)
8,000ft
Speed:
(Current/Filed)
195kts
Departed: 24-Feb-18 10:14 PM
Arrived: 24-Feb-18 11:04 PM
Distance/Time
Traveled:
99nm/0:50
Distance/Time
To Go:
Arrived

Flight Plot

Page will automatically refresh every two minutes.

Flight plan parsing failed; only flown route is shown


Map Options




Map Legend


Flown Route
Filed Route
Departure Airport
Arrival Airport
Navaid (VOR, NDB)
Fix

Horizontal Profiles

Position Reports

Time Latitude Longitude Heading Altitude Ground
Speed
24-Feb-18 22:18 20.794956 -156.015421 328 84ft 3kts
24-Feb-18 22:19 20.795566 -156.017893 267 86ft 16kts
24-Feb-18 22:20 20.795664 -156.018727 89 88ft 2kts
24-Feb-18 22:21 20.795546 -156.000287 92 625ft 95kts
24-Feb-18 22:22 20.795490 -155.971230 91 1825ft 104kts
24-Feb-18 22:23 20.783667 -155.947969 171 2988ft 106kts
24-Feb-18 22:24 20.755326 -155.944125 175 4056ft 107kts
24-Feb-18 22:25 20.731682 -155.941721 176 4881ft 109kts
24-Feb-18 22:26 20.703009 -155.944761 240 5851ft 111kts
24-Feb-18 22:27 20.721131 -155.958003 16 6755ft 111kts
24-Feb-18 22:28 20.751892 -155.955836 357 7629ft 112kts
24-Feb-18 22:29 20.785978 -155.961307 349 8004ft 151kts
24-Feb-18 22:30 20.832304 -155.972350 347 8001ft 186kts
24-Feb-18 22:31 20.884993 -155.984688 349 8000ft 201kts
24-Feb-18 22:32 20.940688 -155.996199 349 7999ft 206kts
24-Feb-18 22:33 20.967978 -156.038185 264 7997ft 209kts
24-Feb-18 22:34 20.959473 -156.099236 261 7999ft 210kts
24-Feb-18 22:35 20.949583 -156.160527 260 7999ft 210kts
24-Feb-18 22:36 20.939454 -156.222275 260 7999ft 210kts
24-Feb-18 22:37 20.929345 -156.283683 260 7999ft 211kts
24-Feb-18 22:38 20.919207 -156.345116 260 7999ft 211kts
24-Feb-18 22:39 20.909239 -156.405385 260 8000ft 211kts
24-Feb-18 22:40 20.920728 -156.465364 289 7999ft 210kts
24-Feb-18 22:41 20.939065 -156.524577 289 8006ft 210kts
24-Feb-18 22:42 20.957377 -156.583327 289 8017ft 210kts
24-Feb-18 22:43 20.975802 -156.642472 290 8026ft 211kts
24-Feb-18 22:44 20.994343 -156.702052 289 8031ft 212kts
24-Feb-18 22:45 21.013036 -156.762184 289 8031ft 213kts
24-Feb-18 22:46 21.031719 -156.822370 289 8029ft 214kts
24-Feb-18 22:47 21.050393 -156.882613 289 8029ft 215kts
24-Feb-18 22:48 21.068763 -156.941905 289 7479ft 214kts
24-Feb-18 22:49 21.087306 -157.001882 289 7046ft 212kts
24-Feb-18 22:50 21.105336 -157.060352 289 7028ft 205kts
24-Feb-18 22:51 21.122942 -157.117499 289 7027ft 202kts
24-Feb-18 22:52 21.140128 -157.175305 285 6824ft 210kts
24-Feb-18 22:53 21.153658 -157.235429 285 6673ft 208kts
24-Feb-18 22:54 21.167120 -157.295276 285 6397ft 207kts
24-Feb-18 22:55 21.180454 -157.354652 285 6135ft 206kts
24-Feb-18 22:56 21.193649 -157.413550 285 6027ft 199kts
24-Feb-18 22:57 21.207466 -157.469725 286 6026ft 193kts
24-Feb-18 22:58 21.221246 -157.525179 286 6023ft 192kts
24-Feb-18 22:59 21.234797 -157.580074 285 6019ft 191kts
24-Feb-18 23:00 21.248393 -157.635029 285 6015ft 191kts
24-Feb-18 23:01 21.261848 -157.689413 284 6009ft 190kts
24-Feb-18 23:02 21.273112 -157.744499 281 6010ft 189kts
24-Feb-18 23:03 21.283549 -157.799395 281 6012ft 189kts
24-Feb-18 23:04 21.293970 -157.854283 281 6014ft 189kts
24-Feb-18 23:05 21.304199 -157.908259 281 6017ft 189kts
24-Feb-18 23:06 21.308189 -157.963631 269 5458ft 187kts
24-Feb-18 23:07 21.307813 -158.018353 270 4138ft 183kts
24-Feb-18 23:08 21.292148 -158.063771 240 3505ft 172kts
24-Feb-18 23:09 21.274529 -158.109604 319 1852ft 200kts
24-Feb-18 23:10 21.299989 -158.082569 57 292ft 83kts
24-Feb-18 23:11 21.311147 -158.065503 58 36ft 38kts
24-Feb-18 23:12 21.311625 -158.064814 56 38ft 0kts
24-Feb-18 23:13 21.311625 -158.064814 56 38ft 0kts
24-Feb-18 23:14 21.311625 -158.064814 56 38ft 0kts
24-Feb-18 23:15 21.311625 -158.064814 56 38ft 0kts
24-Feb-18 23:16 21.316956 -158.056453 65 320ft 80kts
24-Feb-18 23:17 21.302616 -158.038629 142 1447ft 85kts
24-Feb-18 23:18 21.274976 -158.051172 243 2204ft 145kts
24-Feb-18 23:19 21.240198 -158.046179 148 3024ft 167kts
24-Feb-18 23:20 21.195908 -158.017806 147 3157ft 193kts
24-Feb-18 23:21 21.150486 -157.988318 147 3045ft 190kts
24-Feb-18 23:22 21.105980 -157.959327 146 3041ft 186kts
24-Feb-18 23:23 21.078966 -157.919129 88 3034ft 179kts
24-Feb-18 23:24 21.082285 -157.866011 85 3035ft 178kts
24-Feb-18 23:25 21.087007 -157.813125 84 3035ft 178kts
24-Feb-18 23:26 21.091912 -157.760391 84 3035ft 178kts

Navigation Log

Ident Type
Flight plan parsing failed, navigation log unavailable